Time;durP1;ratioP1;P1;durP2;ratioP2;P2;SDS_P1;SDS_P2;PMS_P1;PMS_P2;Temp;Humidity;BMP_temperature;BMP_pressure;BME280_temperature;BME280_humidity;BME280_pressure;Samples;Min_cycle;Max_cycle;Signal;HPM_P1;HPM_P2
2021/03/09 00:02:04;;;;;;;;;;;10.10;63.80;;;;;;4950636;28;76696;-66
2021/03/09 00:04:29;;;;;;;;;;;10.10;63.80;;;;;;4951264;28;76336;-67
2021/03/09 00:06:55;;;;;;;;;;;10.10;63.50;;;;;;4951698;28;75194;-66
2021/03/09 00:09:21;;;;;;;;;;;10.10;63.70;;;;;;4952409;28;74361;-66
2021/03/09 00:11:46;;;;;;;;;;;10.10;63.50;;;;;;4951669;28;74379;-64
2021/03/09 00:14:12;;;;;;;;;;;10.10;63.00;;;;;;4950320;28;76861;-65
2021/03/09 00:16:37;;;;;;;;;;;10.10;63.30;;;;;;4952313;28;74424;-69
2021/03/09 00:19:03;;;;;;;;;;;10.10;63.30;;;;;;4951258;28;75193;-66
2021/03/09 00:21:29;;;;;;;;;;;10.10;62.80;;;;;;4950971;28;78031;-67
2021/03/09 00:23:54;;;;;;;;;;;10.10;62.90;;;;;;4950804;28;76697;-68
2021/03/09 00:26:20;;;;;;;;;;;10.10;63.30;;;;;;4951570;28;75400;-68
2021/03/09 00:28:45;;;;;;;;;;;10.10;62.80;;;;;;4950399;28;74583;-65
2021/03/09 00:31:11;;;;;;;;;;;10.10;62.90;;;;;;4951796;28;74522;-68
2021/03/09 00:33:36;;;;;;;;;;;10.10;63.00;;;;;;4951763;28;75741;-66
2021/03/09 00:36:02;;;;;;;;;;;10.00;62.70;;;;;;4951369;28;74550;-65
2021/03/09 00:38:28;;;;;;;;;;;10.00;62.70;;;;;;4950063;28;75228;-66
2021/03/09 00:40:53;;;;;;;;;;;10.00;62.50;;;;;;4951969;28;74870;-64
2021/03/09 00:43:19;;;;;;;;;;;10.00;62.40;;;;;;4951808;28;74672;-66
2021/03/09 00:45:45;;;;;;;;;;;10.00;62.60;;;;;;4951780;28;75795;-64
2021/03/09 00:48:10;;;;;;;;;;;10.00;62.30;;;;;;4951430;28;75138;-65
2021/03/09 00:50:36;;;;;;;;;;;10.00;62.20;;;;;;4951399;28;74896;-67
2021/03/09 00:53:01;;;;;;;;;;;10.00;62.20;;;;;;4949738;28;74619;-66
2021/03/09 00:55:27;;;;;;;;;;;9.90;62.40;;;;;;4950997;28;74392;-68
2021/03/09 00:57:53;;;;;;;;;;;9.90;62.40;;;;;;4951193;28;75088;-68
2021/03/09 01:00:19;;;;;;;;;;;9.90;62.20;;;;;;4951151;28;74485;-66
2021/03/09 01:02:44;;;;;;;;;;;9.80;62.50;;;;;;4949839;28;77365;-67
2021/03/09 01:05:10;;;;;;;;;;;9.90;62.80;;;;;;4949339;28;75202;-69
2021/03/09 01:07:36;;;;;;;;;;;9.90;62.80;;;;;;4949628;28;75272;-69
2021/03/09 01:10:02;;;;;;;;;;;9.90;63.30;;;;;;4950945;28;75200;-70
2021/03/09 01:12:28;;;;;;;;;;;9.90;63.30;;;;;;4949666;28;76622;-70
2021/03/09 01:14:53;;;;;;;;;;;9.90;63.10;;;;;;4951063;28;75305;-70
2021/03/09 01:17:19;;;;;;;;;;;9.90;62.50;;;;;;4949566;28;77144;-73
2021/03/09 01:19:44;;;;;;;;;;;9.80;62.70;;;;;;4948969;28;76676;-70
2021/03/09 01:22:10;;;;;;;;;;;9.80;63.20;;;;;;4951022;28;74980;-69
2021/03/09 01:24:35;;;;;;;;;;;9.80;63.20;;;;;;4951333;28;75107;-71
2021/03/09 01:27:01;;;;;;;;;;;9.90;63.20;;;;;;4950912;28;74545;-72
2021/03/09 01:29:26;;;;;;;;;;;9.90;63.10;;;;;;4949182;28;77899;-69
2021/03/09 01:31:52;;;;;;;;;;;9.90;62.70;;;;;;4951151;28;75355;-67
2021/03/09 01:34:18;;;;;;;;;;;9.90;62.70;;;;;;4950581;28;75144;-65
2021/03/09 01:36:43;;;;;;;;;;;9.90;62.60;;;;;;4949261;28;75435;-65
2021/03/09 01:39:11;;;;;;;;;;;9.90;62.20;;;;;;4950811;28;74865;-67
2021/03/09 01:41:36;;;;;;;;;;;9.90;62.50;;;;;;4951310;28;75701;-71
2021/03/09 01:44:03;;;;;;;;;;;9.90;62.70;;;;;;4951760;28;74506;-68
2021/03/09 01:46:29;;;;;;;;;;;9.90;62.30;;;;;;4950503;28;74514;-64
2021/03/09 01:48:55;;;;;;;;;;;9.90;62.50;;;;;;4949785;28;78599;-64
2021/03/09 01:51:21;;;;;;;;;;;9.90;62.40;;;;;;4949257;28;75592;-64
2021/03/09 01:53:47;;;;;;;;;;;9.80;61.60;;;;;;4950405;28;75233;-65
2021/03/09 01:56:13;;;;;;;;;;;9.80;62.00;;;;;;4948504;28;78054;-64
2021/03/09 01:58:40;;;;;;;;;;;9.90;61.60;;;;;;4950661;28;75103;-63
2021/03/09 02:01:05;;;;;;;;;;;9.90;61.70;;;;;;4950596;28;74393;-63
2021/03/09 02:03:31;;;;;;;;;;;9.90;61.90;;;;;;4949132;28;75200;-64
2021/03/09 02:05:57;;;;;;;;;;;9.90;61.50;;;;;;4948252;28;76971;-64
2021/03/09 02:08:22;;;;;;;;;;;9.90;61.30;;;;;;4950340;28;75013;-67
2021/03/09 02:10:48;;;;;;;;;;;9.90;61.40;;;;;;4950851;28;75731;-68
2021/03/09 02:13:23;;;;;;;;;;;9.90;61.40;;;;;;4950218;28;75196;-68
2021/03/09 02:15:54;;;;;;;;;;;9.90;61.40;;;;;;4948811;28;75390;-66
2021/03/09 02:18:39;;;;;;;;;;;9.90;61.00;;;;;;4949097;28;77311;-65
2021/03/09 02:21:04;;;;;;;;;;;9.90;60.60;;;;;;4950357;28;74378;-64
2021/03/09 02:23:48;;;;;;;;;;;9.90;60.60;;;;;;4949270;28;77255;-65
2021/03/09 02:26:32;;;;;;;;;;;9.90;60.50;;;;;;4950497;28;75305;-64
2021/03/09 02:28:58;;;;;;;;;;;9.90;60.20;;;;;;4950193;28;75213;-66
2021/03/09 02:31:26;;;;;;;;;;;9.90;60.30;;;;;;4949990;28;74993;-68
2021/03/09 02:33:58;;;;;;;;;;;9.90;60.30;;;;;;4948881;28;76269;-66
2021/03/09 02:36:25;;;;;;;;;;;9.90;60.00;;;;;;4949646;28;75099;-64
2021/03/09 02:38:56;;;;;;;;;;;9.90;60.30;;;;;;4948771;28;75912;-63
2021/03/09 02:41:22;;;;;;;;;;;9.90;60.00;;;;;;4949009;28;77675;-63
2021/03/09 02:43:49;;;;;;;;;;;9.80;59.70;;;;;;4949337;28;74492;-64
2021/03/09 02:46:15;;;;;;;;;;;9.90;60.00;;;;;;4949919;28;74306;-64
2021/03/09 02:48:42;;;;;;;;;;;9.80;59.80;;;;;;4949689;28;75195;-64
2021/03/09 02:51:08;;;;;;;;;;;9.80;59.80;;;;;;4949991;28;75827;-64
2021/03/09 02:53:34;;;;;;;;;;;9.80;59.30;;;;;;4948987;28;75752;-65
2021/03/09 02:56:02;;;;;;;;;;;9.70;59.60;;;;;;4949493;28;75252;-65
2021/03/09 02:58:28;;;;;;;;;;;9.70;59.90;;;;;;4948237;28;76236;-63
2021/03/09 03:00:55;;;;;;;;;;;9.70;59.90;;;;;;4949440;28;76007;-68
2021/03/09 03:03:21;;;;;;;;;;;9.70;59.80;;;;;;4949528;28;75070;-64
2021/03/09 03:05:47;;;;;;;;;;;9.70;59.30;;;;;;4948947;28;75092;-66
2021/03/09 03:08:13;;;;;;;;;;;9.70;59.60;;;;;;4947943;28;76131;-64
2021/03/09 03:10:43;;;;;;;;;;;9.70;59.30;;;;;;4949311;28;75204;-65
2021/03/09 03:13:11;;;;;;;;;;;9.70;59.70;;;;;;4947917;28;75380;-65
2021/03/09 03:15:37;;;;;;;;;;;9.70;59.20;;;;;;4948057;28;75628;-63
2021/03/09 03:18:08;;;;;;;;;;;9.60;59.20;;;;;;4950136;28;76410;-64
2021/03/09 03:20:34;;;;;;;;;;;9.70;58.90;;;;;;4952189;28;75253;-64
2021/03/09 03:23:01;;;;;;;;;;;9.60;59.30;;;;;;4952528;28;74537;-63
2021/03/09 03:25:27;;;;;;;;;;;9.70;59.20;;;;;;4952446;28;75056;-64
2021/03/09 03:27:53;;;;;;;;;;;9.70;59.00;;;;;;4950891;28;75677;-64
2021/03/09 03:30:19;;;;;;;;;;;9.70;59.50;;;;;;4950783;28;77143;-66
2021/03/09 03:32:45;;;;;;;;;;;9.70;58.90;;;;;;4952036;28;75667;-64
2021/03/09 03:35:11;;;;;;;;;;;9.60;58.80;;;;;;4950312;28;75744;-64
2021/03/09 03:37:38;;;;;;;;;;;9.60;58.80;;;;;;4951267;28;74560;-64
2021/03/09 03:40:06;;;;;;;;;;;9.60;58.60;;;;;;4952364;28;75017;-64
2021/03/09 03:42:31;;;;;;;;;;;9.60;58.50;;;;;;4950886;28;74548;-63
2021/03/09 03:44:58;;;;;;;;;;;9.50;58.30;;;;;;4951704;28;74994;-66
2021/03/09 03:47:24;;;;;;;;;;;9.50;58.50;;;;;;4950317;28;76657;-63
2021/03/09 03:49:49;;;;;;;;;;;9.50;58.80;;;;;;4952080;28;75107;-63
2021/03/09 03:52:33;;;;;;;;;;;9.50;58.50;;;;;;4951637;28;75017;-63
2021/03/09 03:55:10;;;;;;;;;;;9.50;58.90;;;;;;4952222;28;74993;-64
2021/03/09 03:57:43;;;;;;;;;;;9.50;58.60;;;;;;4952015;28;75085;-63
2021/03/09 04:00:10;;;;;;;;;;;9.50;58.50;;;;;;4951903;28;75171;-62
2021/03/09 04:02:36;;;;;;;;;;;9.40;58.70;;;;;;4951802;28;75157;-68
2021/03/09 04:05:04;;;;;;;;;;;9.40;58.80;;;;;;4950235;28;75444;-65
2021/03/09 04:07:32;;;;;;;;;;;9.40;59.00;;;;;;4952052;28;75208;-64
2021/03/09 04:09:58;;;;;;;;;;;9.50;58.80;;;;;;4951802;28;75114;-63
2021/03/09 04:12:25;;;;;;;;;;;9.40;58.50;;;;;;4951909;28;75169;-63
2021/03/09 04:14:50;;;;;;;;;;;9.40;58.50;;;;;;4950299;28;76971;-67
2021/03/09 04:17:17;;;;;;;;;;;9.40;58.40;;;;;;4950613;28;77461;-63
2021/03/09 04:19:43;;;;;;;;;;;9.40;58.40;;;;;;4950190;28;77176;-66
2021/03/09 04:22:09;;;;;;;;;;;9.50;58.10;;;;;;4951981;28;75284;-67
2021/03/09 04:24:35;;;;;;;;;;;9.40;57.80;;;;;;4951747;28;75714;-69
2021/03/09 04:27:01;;;;;;;;;;;9.40;58.00;;;;;;4951320;28;75431;-69
2021/03/09 04:29:27;;;;;;;;;;;9.40;57.70;;;;;;4950221;28;75675;-69
2021/03/09 04:31:52;;;;;;;;;;;9.40;57.90;;;;;;4950132;28;77309;-69
2021/03/09 04:34:18;;;;;;;;;;;9.40;57.90;;;;;;4950644;28;74386;-68
2021/03/09 04:36:44;;;;;;;;;;;9.50;57.90;;;;;;4951186;28;75131;-67
2021/03/09 04:39:10;;;;;;;;;;;9.40;57.80;;;;;;4951620;28;75122;-68
2021/03/09 04:41:36;;;;;;;;;;;9.40;57.50;;;;;;4950270;28;77330;-66
2021/03/09 04:44:02;;;;;;;;;;;9.40;57.30;;;;;;4951470;28;75074;-66
2021/03/09 04:46:27;;;;;;;;;;;9.40;57.00;;;;;;4951234;28;75835;-66
2021/03/09 04:48:53;;;;;;;;;;;9.40;57.30;;;;;;4949817;28;75249;-67
2021/03/09 04:51:19;;;;;;;;;;;9.40;57.10;;;;;;4949563;28;74578;-71
2021/03/09 04:53:45;;;;;;;;;;;9.40;57.10;;;;;;4949517;28;75472;-68
2021/03/09 04:56:11;;;;;;;;;;;9.40;56.70;;;;;;4950059;28;76326;-69
2021/03/09 04:58:37;;;;;;;;;;;9.40;55.80;;;;;;4951460;28;75629;-66
2021/03/09 05:01:03;;;;;;;;;;;9.40;56.50;;;;;;4951341;28;75100;-66
2021/03/09 05:03:29;;;;;;;;;;;9.40;56.00;;;;;;4951733;28;74569;-65
2021/03/09 05:05:54;;;;;;;;;;;9.40;56.30;;;;;;4951085;28;75225;-66
2021/03/09 05:08:20;;;;;;;;;;;9.40;56.30;;;;;;4950144;28;76832;-67
2021/03/09 05:10:46;;;;;;;;;;;9.40;56.10;;;;;;4951267;28;75455;-68
2021/03/09 05:13:11;;;;;;;;;;;9.40;56.40;;;;;;4951046;28;75616;-66
2021/03/09 05:15:37;;;;;;;;;;;9.40;56.10;;;;;;4951444;28;75098;-67
2021/03/09 05:18:03;;;;;;;;;;;9.40;55.80;;;;;;4951283;28;75297;-68
2021/03/09 05:20:29;;;;;;;;;;;9.40;55.80;;;;;;4949395;28;77422;-70
2021/03/09 05:22:54;;;;;;;;;;;9.40;56.10;;;;;;4950861;28;75146;-66
2021/03/09 05:25:20;;;;;;;;;;;9.40;55.60;;;;;;4950990;28;75257;-65
2021/03/09 05:27:47;;;;;;;;;;;9.40;55.60;;;;;;4951170;28;75075;-65
2021/03/09 05:30:13;;;;;;;;;;;9.40;55.60;;;;;;4950969;28;75042;-67
2021/03/09 05:32:39;;;;;;;;;;;9.40;56.00;;;;;;4951102;28;76782;-63
2021/03/09 05:35:05;;;;;;;;;;;9.40;56.10;;;;;;4950440;28;76506;-66
2021/03/09 05:37:31;;;;;;;;;;;9.40;56.10;;;;;;4951448;28;76435;-65
2021/03/09 05:39:57;;;;;;;;;;;9.40;56.10;;;;;;4950188;28;75108;-63
2021/03/09 05:42:22;;;;;;;;;;;9.40;56.50;;;;;;4951104;28;75205;-64
2021/03/09 05:44:48;;;;;;;;;;;9.40;56.30;;;;;;4950992;28;75232;-67
2021/03/09 05:47:14;;;;;;;;;;;9.40;56.00;;;;;;4949426;28;76964;-67
2021/03/09 05:49:40;;;;;;;;;;;9.40;56.10;;;;;;4950687;28;75015;-68
2021/03/09 05:52:06;;;;;;;;;;;9.30;56.00;;;;;;4950366;28;75644;-69
2021/03/09 05:54:31;;;;;;;;;;;9.30;56.20;;;;;;4949525;28;77976;-67
2021/03/09 05:56:57;;;;;;;;;;;9.30;56.00;;;;;;4950833;28;75106;-67
2021/03/09 05:59:23;;;;;;;;;;;9.30;56.10;;;;;;4950629;28;74554;-68
2021/03/09 06:01:49;;;;;;;;;;;9.20;56.30;;;;;;4949068;28;77898;-66
2021/03/09 06:04:15;;;;;;;;;;;9.20;56.20;;;;;;4949487;28;77117;-66
2021/03/09 06:06:41;;;;;;;;;;;9.20;56.20;;;;;;4950577;28;75162;-67
2021/03/09 06:09:25;;;;;;;;;;;9.20;56.50;;;;;;4948760;28;78339;-65
2021/03/09 06:12:05;;;;;;;;;;;9.20;56.80;;;;;;4950788;28;75251;-68
2021/03/09 06:14:31;;;;;;;;;;;9.20;56.40;;;;;;4950245;28;75767;-67
2021/03/09 06:16:57;;;;;;;;;;;9.10;56.70;;;;;;4950324;28;75187;-67
2021/03/09 06:19:22;;;;;;;;;;;9.10;56.90;;;;;;4949975;28;74543;-66
2021/03/09 06:21:54;;;;;;;;;;;9.10;57.00;;;;;;4949003;28;75531;-66
2021/03/09 06:24:20;;;;;;;;;;;9.10;57.00;;;;;;4950155;28;75674;-65
2021/03/09 06:26:45;;;;;;;;;;;9.00;57.00;;;;;;4950552;28;74530;-69
2021/03/09 06:29:12;;;;;;;;;;;8.90;57.20;;;;;;4948765;28;78194;-68
2021/03/09 06:31:56;;;;;;;;;;;8.90;57.30;;;;;;4949007;28;76050;-63
2021/03/09 06:34:29;;;;;;;;;;;8.80;57.90;;;;;;4932812;28;76149;-63
2021/03/09 06:37:01;;;;;;;;;;;8.70;57.80;;;;;;4927807;28;77776;-64
2021/03/09 06:39:42;;;;;;;;;;;8.60;58.10;;;;;;4924800;28;76160;-65
2021/03/09 06:42:08;;;;;;;;;;;8.60;58.30;;;;;;4923043;28;76680;-63
2021/03/09 06:44:34;;;;;;;;;;;8.60;58.40;;;;;;4929295;28;74679;-63
2021/03/09 06:47:00;;;;;;;;;;;8.50;58.40;;;;;;4932745;28;76582;-65
2021/03/09 06:49:25;;;;;;;;;;;8.50;58.60;;;;;;4929602;28;77675;-63
2021/03/09 06:51:51;;;;;;;;;;;8.50;58.40;;;;;;4931349;28;76484;-63
2021/03/09 06:54:17;;;;;;;;;;;8.50;58.50;;;;;;4928092;28;76377;-63
2021/03/09 06:56:43;;;;;;;;;;;8.50;58.40;;;;;;4938883;28;76481;-64
2021/03/09 06:59:25;;;;;;;;;;;8.50;58.50;;;;;;4929241;28;77896;-63
2021/03/09 07:02:00;;;;;;;;;;;8.50;58.50;;;;;;4929157;28;75951;-63
2021/03/09 07:04:26;;;;;;;;;;;8.50;58.40;;;;;;4928398;28;77132;-65
2021/03/09 07:06:51;;;;;;;;;;;8.40;58.40;;;;;;4931590;28;76200;-63
2021/03/09 07:09:17;;;;;;;;;;;8.40;58.60;;;;;;4930221;28;75171;-64
2021/03/09 07:11:43;;;;;;;;;;;8.40;58.80;;;;;;4922170;28;76702;-65
2021/03/09 07:14:09;;;;;;;;;;;8.40;58.80;;;;;;4927876;28;76915;-63
2021/03/09 07:16:36;;;;;;;;;;;8.40;58.70;;;;;;4932659;28;76517;-71
2021/03/09 07:19:02;;;;;;;;;;;8.40;58.90;;;;;;4934692;28;75642;-72
2021/03/09 07:21:30;;;;;;;;;;;8.40;58.80;;;;;;4927962;28;78256;-69
2021/03/09 07:23:57;;;;;;;;;;;8.40;58.30;;;;;;4928801;28;75688;-72
2021/03/09 07:26:22;;;;;;;;;;;8.40;58.20;;;;;;4932269;28;76882;-73
2021/03/09 07:28:51;;;;;;;;;;;8.50;58.60;;;;;;4929097;28;75903;-72
2021/03/09 07:31:20;;;;;;;;;;;8.50;58.80;;;;;;4930287;28;77942;-71
2021/03/09 07:33:46;;;;;;;;;;;8.60;58.50;;;;;;4929100;28;76661;-71
2021/03/09 07:36:12;;;;;;;;;;;8.70;58.50;;;;;;4926265;28;76509;-71
2021/03/09 07:38:38;;;;;;;;;;;8.70;58.40;;;;;;4924508;28;76541;-73
2021/03/09 07:41:04;;;;;;;;;;;8.70;58.20;;;;;;4925845;28;78371;-73
2021/03/09 07:43:30;;;;;;;;;;;8.80;58.10;;;;;;4926117;28;76607;-72
2021/03/09 07:45:56;;;;;;;;;;;8.80;58.30;;;;;;4926418;28;76533;-70
2021/03/09 07:48:22;;;;;;;;;;;8.90;58.10;;;;;;4927014;28;77069;-69
2021/03/09 07:50:48;;;;;;;;;;;8.90;57.90;;;;;;4930628;28;75720;-66
2021/03/09 07:53:18;;;;;;;;;;;9.00;58.10;;;;;;4921490;28;78116;-63
2021/03/09 07:55:45;;;;;;;;;;;9.10;57.50;;;;;;4929966;28;75174;-69
2021/03/09 07:58:26;;;;;;;;;;;9.10;57.10;;;;;;4935226;28;75244;-65
2021/03/09 08:00:58;;;;;;;;;;;9.10;57.40;;;;;;4924255;28;76601;-65
2021/03/09 08:03:25;;;;;;;;;;;9.30;57.20;;;;;;4931507;28;75622;-65
2021/03/09 08:05:55;;;;;;;;;;;9.30;56.90;;;;;;4921688;28;76132;-64
2021/03/09 08:08:39;;;;;;;;;;;9.30;56.50;;;;;;4926081;28;76103;-63
2021/03/09 08:11:06;;;;;;;;;;;9.40;56.20;;;;;;4932394;28;76038;-65
2021/03/09 08:13:31;;;;;;;;;;;9.40;56.40;;;;;;4927998;28;75095;-65
2021/03/09 08:16:16;;;;;;;;;;;9.40;56.20;;;;;;4925683;28;78052;-63
2021/03/09 08:18:42;;;;;;;;;;;9.40;56.30;;;;;;4926413;28;75622;-66
2021/03/09 08:21:08;;;;;;;;;;;9.50;55.90;;;;;;4926170;28;76064;-65
2021/03/09 08:23:36;;;;;;;;;;;9.50;56.00;;;;;;4926455;28;76176;-63
2021/03/09 08:26:06;;;;;;;;;;;9.60;55.50;;;;;;4921284;28;75777;-64
2021/03/09 08:28:35;;;;;;;;;;;9.60;55.50;;;;;;4923507;28;75202;-64
2021/03/09 08:31:14;;;;;;;;;;;9.60;55.20;;;;;;4930382;28;77460;-64
2021/03/09 08:33:43;;;;;;;;;;;9.70;55.40;;;;;;4920525;28;76372;-64
2021/03/09 08:36:24;;;;;;;;;;;9.70;55.20;;;;;;4931931;28;76114;-64
2021/03/09 08:41:28;;;;;;;;;;;9.90;55.50;;;;;;4932374;28;76661;-66
2021/03/09 08:44:12;;;;;;;;;;;10.00;54.70;;;;;;4916432;28;77847;-65
2021/03/09 08:46:56;;;;;;;;;;;10.00;53.80;;;;;;4931669;28;75494;-64
2021/03/09 08:49:37;;;;;;;;;;;10.00;54.10;;;;;;4928697;28;76267;-66
2021/03/09 08:52:09;;;;;;;;;;;10.00;53.40;;;;;;4924862;28;75809;-63
2021/03/09 08:54:36;;;;;;;;;;;10.10;53.80;;;;;;4926221;28;76432;-64
2021/03/09 08:57:11;;;;;;;;;;;10.20;54.10;;;;;;4931351;28;75936;-67
2021/03/09 08:59:37;;;;;;;;;;;10.30;53.40;;;;;;4921195;28;76150;-61
2021/03/09 09:02:04;;;;;;;;;;;10.40;53.80;;;;;;4931504;28;76428;-66
2021/03/09 09:04:30;;;;;;;;;;;10.50;53.90;;;;;;4926796;28;75976;-73
2021/03/09 09:06:55;;;;;;;;;;;10.60;53.30;;;;;;4920755;28;76323;-68
2021/03/09 09:09:34;;;;;;;;;;;10.80;52.80;;;;;;4928042;28;77278;-66
2021/03/09 09:12:19;;;;;;;;;;;10.80;52.50;;;;;;4915885;28;96537;-64
2021/03/09 09:14:46;;;;;;;;;;;10.90;52.40;;;;;;4925164;28;75956;-64
2021/03/09 09:17:11;;;;;;;;;;;11.00;52.20;;;;;;4929687;28;75723;-66
2021/03/09 09:19:37;;;;;;;;;;;11.10;51.90;;;;;;4917947;28;76339;-64
2021/03/09 09:22:02;;;;;;;;;;;11.10;51.50;;;;;;4929518;28;76524;-67
2021/03/09 09:24:28;;;;;;;;;;;11.20;50.70;;;;;;4936689;28;75122;-65
2021/03/09 09:27:01;;;;;;;;;;;11.20;50.50;;;;;;4923439;28;77795;-64
2021/03/09 09:29:26;;;;;;;;;;;11.30;51.50;;;;;;4932368;28;75362;-63
2021/03/09 09:31:56;;;;;;;;;;;11.40;51.20;;;;;;4928737;28;75724;-66
2021/03/09 09:34:31;;;;;;;;;;;11.50;50.40;;;;;;4924934;28;75331;-67
2021/03/09 09:36:56;;;;;;;;;;;11.70;51.30;;;;;;4922430;28;78098;-66
2021/03/09 09:39:32;;;;;;;;;;;11.90;50.90;;;;;;4925169;28;77597;-69
2021/03/09 09:41:57;;;;;;;;;;;12.00;50.10;;;;;;4932381;28;76430;-66
2021/03/09 09:44:23;;;;;;;;;;;12.20;50.00;;;;;;4926361;28;76594;-68
2021/03/09 09:46:48;;;;;;;;;;;12.40;49.20;;;;;;4926779;28;77002;-70
2021/03/09 09:49:14;;;;;;;;;;;12.50;48.40;;;;;;4934552;28;76560;-67
2021/03/09 09:51:40;;;;;;;;;;;12.70;48.70;;;;;;4929576;28;76399;-67
2021/03/09 09:54:12;;;;;;;;;;;12.90;48.10;;;;;;4925081;28;76363;-72
2021/03/09 09:56:37;;;;;;;;;;;13.10;47.60;;;;;;4933873;28;76565;-65
2021/03/09 09:59:03;;;;;;;;;;;13.40;45.90;;;;;;4923807;28;76523;-65
2021/03/09 10:01:31;;;;;;;;;;;13.50;46.20;;;;;;4936734;28;76132;-66
2021/03/09 10:03:59;;;;;;;;;;;13.60;46.60;;;;;;4928196;28;76752;-65
2021/03/09 10:06:26;;;;;;;;;;;13.70;45.60;;;;;;4928229;28;79510;-65
2021/03/09 10:08:51;;;;;;;;;;;13.90;46.00;;;;;;4924906;28;74832;-65
2021/03/09 10:11:17;;;;;;;;;;;14.20;45.50;;;;;;4922324;28;76172;-66
2021/03/09 10:13:43;;;;;;;;;;;14.50;45.10;;;;;;4930128;28;75902;-66
2021/03/09 10:16:08;;;;;;;;;;;14.70;43.60;;;;;;4920819;28;76233;-64
2021/03/09 10:18:36;;;;;;;;;;;14.90;43.50;;;;;;4925153;28;76555;-66
2021/03/09 10:21:03;;;;;;;;;;;15.00;43.40;;;;;;4921264;28;76195;-65
2021/03/09 10:23:29;;;;;;;;;;;15.20;42.60;;;;;;4924028;28;76196;-65
2021/03/09 10:25:56;;;;;;;;;;;15.40;42.30;;;;;;4919731;28;76457;-65
2021/03/09 10:28:25;;;;;;;;;;;15.60;42.60;;;;;;4930616;28;76455;-68
2021/03/09 10:30:51;;;;;;;;;;;15.90;41.60;;;;;;4939251;28;75850;-65
2021/03/09 10:33:16;;;;;;;;;;;16.10;41.00;;;;;;4930236;28;76519;-66
2021/03/09 10:36:01;;;;;;;;;;;16.40;40.60;;;;;;4933326;28;77196;-69
2021/03/09 10:38:26;;;;;;;;;;;16.80;40.60;;;;;;4936051;28;76457;-67
2021/03/09 10:40:52;;;;;;;;;;;17.20;39.80;;;;;;4930647;28;77740;-71
2021/03/09 10:43:36;;;;;;;;;;;17.50;38.50;;;;;;4924385;28;77395;-67
2021/03/09 10:46:02;;;;;;;;;;;17.90;38.60;;;;;;4924911;28;77385;-65
2021/03/09 10:48:28;;;;;;;;;;;18.40;38.60;;;;;;4925243;28;75852;-67
2021/03/09 10:50:53;;;;;;;;;;;18.70;37.80;;;;;;4930418;28;76613;-66
2021/03/09 10:53:19;;;;;;;;;;;19.10;36.10;;;;;;4929120;28;75970;-68
2021/03/09 10:55:44;;;;;;;;;;;19.50;36.70;;;;;;4927069;28;75550;-66
2021/03/09 10:58:10;;;;;;;;;;;19.90;34.90;;;;;;4933720;28;76367;-67
2021/03/09 11:00:35;;;;;;;;;;;20.20;34.20;;;;;;4925404;28;79495;-66
2021/03/09 11:03:01;;;;;;;;;;;20.40;33.60;;;;;;4919442;28;76054;-68
2021/03/09 11:05:27;;;;;;;;;;;20.60;34.30;;;;;;4919181;28;76849;-66
2021/03/09 11:07:52;;;;;;;;;;;21.20;33.80;;;;;;4927967;28;76385;-67
2021/03/09 11:10:19;;;;;;;;;;;21.90;32.50;;;;;;4925614;28;76952;-67
2021/03/09 11:12:44;;;;;;;;;;;22.60;29.60;;;;;;4930980;28;76504;-67
2021/03/09 11:15:10;;;;;;;;;;;23.10;30.60;;;;;;4917570;28;76458;-67
2021/03/09 11:17:36;;;;;;;;;;;23.60;30.00;;;;;;4923499;28;76265;-66
2021/03/09 11:20:03;;;;;;;;;;;24.40;29.80;;;;;;4915935;28;77955;-66
2021/03/09 11:22:29;;;;;;;;;;;25.20;29.20;;;;;;4928220;28;75561;-66
2021/03/09 11:24:54;;;;;;;;;;;26.00;28.40;;;;;;4928720;28;76298;-67
2021/03/09 11:27:20;;;;;;;;;;;26.40;26.20;;;;;;4938683;28;76105;-67
2021/03/09 11:29:45;;;;;;;;;;;26.70;26.50;;;;;;4934445;28;75948;-66
2021/03/09 11:32:11;;;;;;;;;;;27.40;25.00;;;;;;4934611;28;77409;-69
2021/03/09 11:34:37;;;;;;;;;;;27.70;24.10;;;;;;4938153;28;76498;-67
2021/03/09 11:37:02;;;;;;;;;;;27.80;24.20;;;;;;4936966;28;75089;-66
2021/03/09 11:39:28;;;;;;;;;;;28.10;23.80;;;;;;4921994;28;75916;-68
2021/03/09 11:41:54;;;;;;;;;;;28.50;24.90;;;;;;4931807;28;77758;-67
2021/03/09 11:44:20;;;;;;;;;;;28.20;25.40;;;;;;4925442;28;75180;-68
2021/03/09 11:46:47;;;;;;;;;;;28.30;25.00;;;;;;4933503;28;77707;-68
2021/03/09 11:49:13;;;;;;;;;;;28.90;24.60;;;;;;4930019;28;75747;-67
2021/03/09 11:51:38;;;;;;;;;;;30.20;23.20;;;;;;4936449;28;77291;-68
2021/03/09 11:54:04;;;;;;;;;;;31.60;22.40;;;;;;4930753;28;75801;-67
2021/03/09 11:56:30;;;;;;;;;;;32.90;21.90;;;;;;4935598;28;75641;-69
2021/03/09 11:58:55;;;;;;;;;;;34.00;19.00;;;;;;4925387;28;77971;-67
2021/03/09 12:01:21;;;;;;;;;;;34.60;20.20;;;;;;4922949;28;76489;-67
2021/03/09 12:03:47;;;;;;;;;;;34.90;19.20;;;;;;4931279;28;75145;-67
2021/03/09 12:06:13;;;;;;;;;;;34.90;19.10;;;;;;4922551;28;75995;-66
2021/03/09 12:08:38;;;;;;;;;;;34.40;19.70;;;;;;4930319;28;76496;-67
2021/03/09 12:11:04;;;;;;;;;;;33.40;20.20;;;;;;4933280;28;74771;-66
2021/03/09 12:13:29;;;;;;;;;;;32.80;20.50;;;;;;4928579;28;76986;-67
2021/03/09 12:15:55;;;;;;;;;;;31.90;20.50;;;;;;4923935;28;76145;-66
2021/03/09 12:18:21;;;;;;;;;;;32.30;21.60;;;;;;4934997;28;76817;-68
2021/03/09 12:20:46;;;;;;;;;;;33.80;19.90;;;;;;4931061;28;77177;-67
2021/03/09 12:23:12;;;;;;;;;;;35.00;19.40;;;;;;4936277;28;76896;-68
2021/03/09 12:25:38;;;;;;;;;;;35.90;19.10;;;;;;4937759;28;75884;-65
2021/03/09 12:28:04;;;;;;;;;;;36.20;18.50;;;;;;4936114;28;77034;-67
2021/03/09 12:30:30;;;;;;;;;;;36.00;18.60;;;;;;4936493;28;77159;-66
2021/03/09 12:32:55;;;;;;;;;;;34.40;19.70;;;;;;4937539;28;76094;-68
2021/03/09 12:35:21;;;;;;;;;;;33.10;20.90;;;;;;4920815;28;76605;-66
2021/03/09 12:37:47;;;;;;;;;;;33.90;18.70;;;;;;4916760;28;76319;-68
2021/03/09 12:40:12;;;;;;;;;;;34.00;18.70;;;;;;4931152;28;75955;-66
2021/03/09 12:42:38;;;;;;;;;;;33.10;19.80;;;;;;4936188;28;76282;-67
2021/03/09 12:45:05;;;;;;;;;;;31.90;21.60;;;;;;4921009;28;75191;-66
2021/03/09 12:47:30;;;;;;;;;;;33.30;20.50;;;;;;4922150;28;76225;-68
2021/03/09 12:49:56;;;;;;;;;;;34.70;18.60;;;;;;4922110;28;76821;-67
2021/03/09 12:52:21;;;;;;;;;;;35.60;19.40;;;;;;4921988;28;75702;-67
2021/03/09 12:54:47;;;;;;;;;;;36.10;15.90;;;;;;4917448;28;77494;-67
2021/03/09 12:57:13;;;;;;;;;;;34.00;19.00;;;;;;4930449;28;76601;-67
2021/03/09 12:59:39;;;;;;;;;;;33.00;20.60;;;;;;4928451;28;77212;-67
2021/03/09 13:02:04;;;;;;;;;;;33.40;19.80;;;;;;4925429;28;77376;-65
2021/03/09 13:04:30;;;;;;;;;;;32.70;19.70;;;;;;4925098;28;76568;-66
2021/03/09 13:06:56;;;;;;;;;;;32.50;20.20;;;;;;4923902;28;76406;-66
2021/03/09 13:09:22;;;;;;;;;;;33.20;17.70;;;;;;4923418;28;75806;-63
2021/03/09 13:11:47;;;;;;;;;;;31.80;19.20;;;;;;4926025;28;75936;-68
2021/03/09 13:14:14;;;;;;;;;;;29.90;20.30;;;;;;4932863;28;76382;-66
2021/03/09 13:16:39;;;;;;;;;;;28.50;20.50;;;;;;4927962;28;76601;-67
2021/03/09 13:19:05;;;;;;;;;;;29.00;22.20;;;;;;4923468;28;75903;-66
2021/03/09 13:21:30;;;;;;;;;;;31.40;17.80;;;;;;4929334;28;75680;-65
2021/03/09 13:23:56;;;;;;;;;;;32.30;17.90;;;;;;4930546;28;76804;-66
2021/03/09 13:26:22;;;;;;;;;;;32.90;18.30;;;;;;4933709;28;75649;-67
2021/03/09 13:28:48;;;;;;;;;;;34.10;16.40;;;;;;4921501;28;78357;-70
2021/03/09 13:31:14;;;;;;;;;;;34.80;17.60;;;;;;4916878;28;75888;-69
2021/03/09 13:33:40;;;;;;;;;;;35.50;16.70;;;;;;4918153;28;76588;-71
2021/03/09 13:36:08;;;;;;;;;;;33.30;18.70;;;;;;4932349;28;76288;-68
2021/03/09 13:38:34;;;;;;;;;;;31.00;19.30;;;;;;4930244;28;76912;-68
2021/03/09 13:40:59;;;;;;;;;;;29.40;21.50;;;;;;4918292;28;75800;-67
2021/03/09 13:43:25;;;;;;;;;;;28.30;20.50;;;;;;4935235;28;76504;-74
2021/03/09 13:45:51;;;;;;;;;;;28.50;21.70;;;;;;4936014;27;77114;-73
2021/03/09 13:48:16;;;;;;;;;;;28.40;21.70;;;;;;4933260;28;76597;-75
2021/03/09 13:50:42;;;;;;;;;;;28.40;21.10;;;;;;4923813;28;76231;-73
2021/03/09 13:53:07;;;;;;;;;;;29.90;21.80;;;;;;4932116;28;76507;-73
2021/03/09 13:55:33;;;;;;;;;;;30.70;20.10;;;;;;4916875;28;76405;-72
2021/03/09 13:57:59;;;;;;;;;;;30.10;20.20;;;;;;4931582;28;75535;-72
2021/03/09 14:00:24;;;;;;;;;;;29.30;21.40;;;;;;4922065;28;75897;-74
2021/03/09 14:02:50;;;;;;;;;;;27.60;21.30;;;;;;4928602;28;75693;-82
2021/03/09 14:05:16;;;;;;;;;;;26.90;21.70;;;;;;4926374;28;79251;-75
2021/03/09 14:07:42;;;;;;;;;;;27.20;21.70;;;;;;4929931;28;76190;-76
2021/03/09 14:10:08;;;;;;;;;;;28.80;22.30;;;;;;4937647;28;76584;-70
2021/03/09 14:12:34;;;;;;;;;;;30.80;20.50;;;;;;4998199;28;75084;-71
2021/03/09 14:14:59;;;;;;;;;;;31.90;19.70;;;;;;5031695;28;74942;-72
2021/03/09 14:17:25;;;;;;;;;;;32.50;18.10;;;;;;5032518;28;75371;-76
2021/03/09 14:19:51;;;;;;;;;;;31.30;18.60;;;;;;5032860;28;75778;-77
2021/03/09 14:22:17;;;;;;;;;;;31.40;19.70;;;;;;5016443;28;77905;-72
2021/03/09 14:24:43;;;;;;;;;;;33.00;18.80;;;;;;4933553;28;77629;-76
2021/03/09 14:27:15;;;;;;;;;;;34.00;18.80;;;;;;4949697;28;76405;-71